createdAt,value
2023-10-30T00:11:37.565Z,15.06
2023-10-30T00:26:41.214Z,14.97
2023-10-30T00:41:44.886Z,15.10
2023-10-30T00:56:48.363Z,15.21
2023-10-30T01:11:51.900Z,15.29
2023-10-30T01:26:55.220Z,15.06
2023-10-30T01:41:58.856Z,14.92
2023-10-30T01:57:02.770Z,14.97
2023-10-30T02:12:06.405Z,14.76
2023-10-30T02:27:11.037Z,14.71
2023-10-30T02:42:14.613Z,14.53
2023-10-30T02:57:18.087Z,14.64
2023-10-30T03:12:21.438Z,14.68
2023-10-30T03:27:25.148Z,14.51
2023-10-30T03:42:28.533Z,14.38
2023-10-30T03:57:32.056Z,14.37
2023-10-30T04:12:35.512Z,14.31
2023-10-30T04:27:39.164Z,14.29
2023-10-30T04:42:42.508Z,14.21
2023-10-30T04:57:45.924Z,14.00
2023-10-30T05:12:49.236Z,13.80
2023-10-30T05:48:33.992Z,13.53
2023-10-30T06:03:37.723Z,13.36
2023-10-30T06:18:41.437Z,13.26
2023-10-30T06:33:46.173Z,13.40
2023-10-30T06:48:49.639Z,13.52
2023-10-30T07:03:53.738Z,13.62
2023-10-30T07:18:58.319Z,13.70
2023-10-30T07:34:02.053Z,14.57
2023-10-30T07:49:05.944Z,17.51
2023-10-30T08:04:11.074Z,18.09
2023-10-30T08:19:14.719Z,16.83
2023-10-30T08:34:17.929Z,17.78
2023-10-30T08:49:21.114Z,19.78
2023-10-30T09:04:24.712Z,18.85
2023-10-30T09:19:28.816Z,19.55
2023-10-30T09:34:32.113Z,21.58
2023-10-30T09:49:37.408Z,21.97
2023-10-30T10:04:42.347Z,22.56
2023-10-30T10:19:49.062Z,22.75
2023-10-30T10:34:52.995Z,21.48
2023-10-30T10:49:58.103Z,20.21
2023-10-30T11:05:02.226Z,18.85
2023-10-30T11:20:11.922Z,18.23
2023-10-30T11:35:15.468Z,18.28
2023-10-30T11:50:19.552Z,18.85
2023-10-30T12:05:23.478Z,19.17
2023-10-30T12:20:27.051Z,19.07
2023-10-30T12:35:30.702Z,19.00
2023-10-30T12:50:34.352Z,18.56
2023-10-30T13:05:37.817Z,18.40
2023-10-30T13:20:41.368Z,18.55
2023-10-30T13:35:45.165Z,18.33
2023-10-30T13:50:50.853Z,17.91
2023-10-30T14:05:54.615Z,17.64
2023-10-30T14:20:58.478Z,17.42
2023-10-30T14:36:01.817Z,17.32
2023-10-30T14:51:05.933Z,17.11
2023-10-30T15:06:09.268Z,16.78
2023-10-30T15:21:12.666Z,16.29
2023-10-30T15:36:16.162Z,16.14
2023-10-30T15:51:19.846Z,16.01
2023-10-30T16:06:25.943Z,15.64
2023-10-30T16:21:29.711Z,15.39
2023-10-30T16:36:34.848Z,15.46
2023-10-30T16:51:38.306Z,15.24
2023-10-30T17:06:42.058Z,15.28
2023-10-30T17:21:45.464Z,15.34
2023-10-30T17:36:52.886Z,15.21
2023-10-30T17:51:56.298Z,15.10
2023-10-30T18:06:59.945Z,15.45
2023-10-30T18:22:03.573Z,15.39
2023-10-30T18:37:07.663Z,15.22
2023-10-30T18:52:11.264Z,15.12
2023-10-30T19:07:14.760Z,15.15
2023-10-30T19:28:15.802Z,15.01
2023-10-30T19:43:19.061Z,15.15
2023-10-30T19:58:22.402Z,14.99
2023-10-30T20:13:27.436Z,14.76
2023-10-30T20:28:30.918Z,14.57
2023-10-30T20:43:34.425Z,14.80
2023-10-30T20:58:38.374Z,14.86
2023-10-30T21:13:41.997Z,14.95
2023-10-30T21:28:45.601Z,14.71
2023-10-30T21:43:51.205Z,14.72
2023-10-30T21:58:56.428Z,14.55
2023-10-30T22:14:00.613Z,14.54
2023-10-30T22:29:04.485Z,14.31
2023-10-30T22:44:08.952Z,14.02
2023-10-30T22:59:12.772Z,13.80
2023-10-30T23:14:16.002Z,13.74
2023-10-30T23:29:19.380Z,13.78
2023-10-30T23:44:23.311Z,13.79
2023-10-30T23:59:27.478Z,13.61
